createdAt,value
2022-11-26T00:02:32.232Z,102605.20
2022-11-26T00:05:00.734Z,102615.00
2022-11-26T00:07:30.851Z,102616.67
2022-11-26T00:10:00.673Z,102611.41
2022-11-26T00:12:32.151Z,102615.46
2022-11-26T00:15:02.765Z,102621.18
2022-11-26T00:17:30.464Z,102616.77
2022-11-26T00:19:58.387Z,102621.67
2022-11-26T00:22:37.110Z,102629.78
2022-11-26T00:25:04.970Z,102635.12
2022-11-26T00:27:32.677Z,102642.02
2022-11-26T00:30:00.320Z,102650.52
2022-11-26T00:32:27.995Z,102648.06
2022-11-26T00:34:55.660Z,102646.04
2022-11-26T00:37:36.530Z,102647.67
2022-11-26T00:40:04.384Z,102641.98
2022-11-26T00:42:32.123Z,102647.67
2022-11-26T00:44:59.753Z,102652.12
2022-11-26T00:47:27.409Z,102646.04
2022-11-26T00:49:55.032Z,102657.77
2022-11-26T00:52:33.667Z,102657.35
2022-11-26T00:55:08.301Z,102650.48
2022-11-26T00:57:36.378Z,102643.55
2022-11-26T01:00:07.646Z,102634.59
2022-11-26T01:02:35.371Z,102637.89
2022-11-26T01:05:03.037Z,102635.44
2022-11-26T01:07:31.412Z,102635.44
2022-11-26T01:09:59.120Z,102631.74
2022-11-26T01:12:26.912Z,102625.66
2022-11-26T01:14:54.675Z,102631.32
2022-11-26T01:17:22.286Z,102636.20
2022-11-26T01:19:50.051Z,102636.20
2022-11-26T01:22:23.449Z,102638.65
2022-11-26T01:24:51.296Z,102646.76
2022-11-26T01:27:21.754Z,102641.03
2022-11-26T01:29:49.434Z,102644.73
2022-11-26T01:32:17.181Z,102647.18
2022-11-26T01:34:44.780Z,102662.65
2022-11-26T01:37:15.203Z,102664.74
2022-11-26T01:39:42.933Z,102670.43
2022-11-26T01:42:25.795Z,102674.55
2022-11-26T01:44:53.403Z,102674.59
2022-11-26T01:47:28.374Z,102678.67
2022-11-26T01:50:30.443Z,102687.20
2022-11-26T01:53:24.183Z,102692.50
2022-11-26T01:56:14.196Z,102703.49
2022-11-26T01:58:47.552Z,102707.19
2022-11-26T02:01:15.363Z,102706.37
2022-11-26T02:03:54.647Z,102716.93
2022-11-26T02:06:27.782Z,102720.16
2022-11-26T02:08:56.719Z,102718.95
2022-11-26T02:11:25.698Z,102721.80
2022-11-26T02:13:57.248Z,102723.47
2022-11-26T02:16:43.734Z,102726.31
2022-11-26T02:19:48.696Z,102733.21
2022-11-26T02:22:31.240Z,102740.90
2022-11-26T02:25:28.567Z,102754.70
2022-11-26T02:28:08.099Z,102755.52
2022-11-26T02:30:44.341Z,102762.02
2022-11-26T02:33:14.923Z,102761.99
2022-11-26T02:35:50.909Z,102760.78
2022-11-26T02:38:34.063Z,102759.57
2022-11-26T02:41:02.788Z,102761.17
2022-11-26T02:43:32.244Z,102764.02
2022-11-26T02:46:05.973Z,102772.95
2022-11-26T02:48:39.925Z,102767.65
2022-11-26T02:51:14.265Z,102782.23
2022-11-26T02:53:43.030Z,102784.69
2022-11-26T02:56:18.333Z,102792.01
2022-11-26T02:58:46.818Z,102794.43
2022-11-26T03:01:30.355Z,102788.77
2022-11-26T03:04:03.077Z,102798.91
2022-11-26T03:06:34.349Z,102805.38
2022-11-26T03:09:02.463Z,102812.71
2022-11-26T03:11:30.374Z,102817.58
2022-11-26T03:13:58.256Z,102820.82
2022-11-26T03:16:26.078Z,102816.34
2022-11-26T03:18:54.015Z,102833.02
2022-11-26T03:21:21.685Z,102839.49
2022-11-26T03:23:49.453Z,102838.67
2022-11-26T03:26:17.286Z,102836.25
2022-11-26T03:28:44.913Z,102839.88
2022-11-26T03:31:12.651Z,102840.30
2022-11-26T03:33:40.362Z,102831.77
2022-11-26T03:36:08.526Z,102836.25
2022-11-26T03:38:36.359Z,102836.64
2022-11-26T03:41:05.499Z,102834.62
2022-11-26T03:43:33.141Z,102833.41
2022-11-26T03:46:00.874Z,102830.56
2022-11-26T03:48:28.577Z,102835.44
2022-11-26T03:50:56.288Z,102838.28
2022-11-26T03:53:23.897Z,102833.80
2022-11-26T03:55:51.610Z,102832.16
2022-11-26T03:58:19.286Z,102837.46
2022-11-26T04:00:46.982Z,102840.30
2022-11-26T04:03:14.720Z,102841.09
2022-11-26T04:05:42.452Z,102847.99
2022-11-26T04:08:10.308Z,102849.23
2022-11-26T04:10:38.109Z,102844.36
2022-11-26T04:13:05.741Z,102848.41
2022-11-26T04:15:33.396Z,102852.08
2022-11-26T04:18:01.092Z,102850.02
2022-11-26T04:20:29.388Z,102850.02
2022-11-26T04:22:57.125Z,102845.54
2022-11-26T04:25:24.732Z,102854.86
2022-11-26T04:27:52.429Z,102850.41
2022-11-26T04:30:20.399Z,102855.31
2022-11-26T04:32:48.071Z,102853.26
2022-11-26T04:35:15.849Z,102852.02
2022-11-26T04:37:43.563Z,102847.56
2022-11-26T04:40:12.151Z,102848.35
2022-11-26T04:42:39.791Z,102841.06
2022-11-26T04:45:08.097Z,102838.57
2022-11-26T04:47:40.063Z,102842.63
2022-11-26T04:50:11.317Z,102840.60
2022-11-26T04:52:38.964Z,102835.30
2022-11-26T04:55:06.943Z,102843.84
2022-11-26T04:57:34.633Z,102842.59
2022-11-26T05:00:02.433Z,102833.21
2022-11-26T05:02:30.114Z,102840.50
2022-11-26T05:04:57.830Z,102850.61
2022-11-26T05:07:25.616Z,102848.16
2022-11-26T05:09:53.291Z,102852.21
2022-11-26T05:12:20.956Z,102853.02
2022-11-26T05:14:48.587Z,102856.66
2022-11-26T05:17:16.272Z,102851.39
2022-11-26T05:19:43.875Z,102853.06
2022-11-26T05:22:11.557Z,102850.67
2022-11-26T05:24:39.431Z,102857.21
2022-11-26T05:27:07.325Z,102865.75
2022-11-26T05:29:36.287Z,102864.11
2022-11-26T05:32:04.189Z,102870.62
2022-11-26T05:34:31.976Z,102872.65
2022-11-26T05:36:59.616Z,102875.49
2022-11-26T05:39:27.405Z,102877.06
2022-11-26T05:41:55.041Z,102879.52
2022-11-26T05:44:22.768Z,102892.95
2022-11-26T05:46:50.421Z,102891.35
2022-11-26T05:49:18.441Z,102901.13
2022-11-26T05:51:46.060Z,102908.84
2022-11-26T05:54:15.525Z,102901.95
2022-11-26T05:56:44.252Z,102899.10
2022-11-26T05:59:12.452Z,102894.23
2022-11-26T06:01:40.620Z,102891.38
2022-11-26T06:04:08.268Z,102901.13
2022-11-26T06:06:36.351Z,102900.34
2022-11-26T06:09:05.035Z,102909.24
2022-11-26T06:11:32.729Z,102905.15
2022-11-26T06:14:00.413Z,102899.43
2022-11-26T06:16:28.051Z,102904.34
2022-11-26T06:18:55.808Z,102897.80
2022-11-26T06:21:23.563Z,102907.57
2022-11-26T06:23:57.561Z,102907.11
2022-11-26T06:26:26.761Z,102909.56
2022-11-26T06:28:54.430Z,102914.44
2022-11-26T06:31:22.167Z,102904.27
2022-11-26T06:33:53.782Z,102912.02
2022-11-26T06:36:21.555Z,102909.56
2022-11-26T06:38:49.600Z,102910.80
2022-11-26T06:41:17.598Z,102901.42
2022-11-26T06:43:45.219Z,102903.48
2022-11-26T06:46:13.164Z,102901.85
2022-11-26T06:48:41.607Z,102901.45
2022-11-26T06:51:15.964Z,102911.20
2022-11-26T06:53:44.236Z,102912.05
2022-11-26T06:56:18.400Z,102921.80
2022-11-26T06:58:47.797Z,102924.25
2022-11-26T07:01:20.981Z,102931.97
2022-11-26T07:03:49.415Z,102934.81
2022-11-26T07:06:29.179Z,102937.20
2022-11-26T07:08:58.753Z,102937.63
2022-11-26T07:11:27.233Z,102940.44
2022-11-26T07:13:56.494Z,102943.67
2022-11-26T07:16:24.544Z,102943.25
2022-11-26T07:18:59.234Z,102940.80
2022-11-26T07:21:30.590Z,102950.18
2022-11-26T07:23:58.981Z,102941.65
2022-11-26T07:26:26.622Z,102947.34
2022-11-26T07:28:55.174Z,102954.66
2022-11-26T07:31:24.091Z,102961.59
2022-11-26T07:33:52.369Z,102956.72
2022-11-26T07:36:26.720Z,102967.31
2022-11-26T07:38:56.067Z,102968.55
2022-11-26T07:41:23.912Z,102981.18
2022-11-26T07:43:52.383Z,102984.02
2022-11-26T07:46:23.366Z,102992.10
2022-11-26T07:48:51.239Z,102993.73
2022-11-26T07:51:27.779Z,103004.73
2022-11-26T07:53:56.650Z,103006.72
2022-11-26T07:56:24.408Z,103024.21
2022-11-26T07:58:52.285Z,103026.66
2022-11-26T08:01:22.565Z,103033.56
2022-11-26T08:03:52.321Z,103023.00
2022-11-26T08:06:29.318Z,103021.76
2022-11-26T08:08:57.117Z,103018.49
2022-11-26T08:11:29.372Z,103013.59
2022-11-26T08:14:03.138Z,103014.44
2022-11-26T08:16:31.324Z,103022.16
2022-11-26T08:19:01.281Z,103024.60
2022-11-26T08:21:29.278Z,103027.88
2022-11-26T08:23:57.811Z,103025.03
2022-11-26T08:26:33.970Z,103026.27
2022-11-26T08:29:04.395Z,103028.66
2022-11-26T08:31:32.181Z,103027.05
2022-11-26T08:34:00.827Z,103030.30
2022-11-26T08:36:30.906Z,103021.37
2022-11-26T08:38:59.942Z,103031.51
2022-11-26T08:41:27.707Z,103032.75
2022-11-26T08:44:10.644Z,103040.50
2022-11-26T08:46:40.336Z,103043.73
2022-11-26T08:49:11.326Z,103037.26
2022-11-26T08:51:39.062Z,103036.41
2022-11-26T08:54:06.836Z,103044.95
2022-11-26T08:56:35.582Z,103047.40
2022-11-26T08:59:03.602Z,103050.63
2022-11-26T09:01:33.591Z,103050.63
2022-11-26T09:04:03.702Z,103049.42
2022-11-26T09:06:32.781Z,103053.91
2022-11-26T09:09:14.396Z,103048.25
2022-11-26T09:11:49.974Z,103047.01
2022-11-26T09:14:20.382Z,103055.93
2022-11-26T09:16:48.956Z,103054.72
2022-11-26T09:19:17.880Z,103052.66
2022-11-26T09:21:46.955Z,103055.90
2022-11-26T09:24:15.426Z,103057.53
2022-11-26T09:26:43.290Z,103046.13
2022-11-26T09:29:15.264Z,103057.89
2022-11-26T09:32:15.284Z,103052.99
2022-11-26T09:34:34.968Z,103054.59
2022-11-26T09:37:03.105Z,103056.23
2022-11-26T09:39:30.907Z,103059.82
2022-11-26T09:42:13.090Z,103060.67
2022-11-26T09:45:17.926Z,103058.19
2022-11-26T09:47:49.714Z,103064.27
2022-11-26T09:50:17.319Z,103061.82
2022-11-26T09:53:14.030Z,103061.78
2022-11-26T09:55:44.942Z,103065.02
2022-11-26T09:58:30.426Z,103065.02
2022-11-26T10:01:00.256Z,103067.41
2022-11-26T10:03:34.404Z,103068.20
2022-11-26T10:06:08.158Z,103067.37
2022-11-26T10:09:01.840Z,103065.28
2022-11-26T10:11:50.203Z,103067.28
2022-11-26T10:14:47.000Z,103059.49
2022-11-26T10:17:27.042Z,103057.05
2022-11-26T10:20:19.639Z,103061.91
2022-11-26T10:22:57.058Z,103053.38
2022-11-26T10:25:29.985Z,103074.93
2022-11-26T10:28:00.292Z,103066.79
2022-11-26T10:30:30.370Z,103060.67
2022-11-26T10:33:01.988Z,103052.50
2022-11-26T10:35:30.486Z,103051.29
2022-11-26T10:37:59.251Z,103049.69
2022-11-26T10:40:32.424Z,103042.82
2022-11-26T10:43:04.748Z,103052.95
2022-11-26T10:45:50.964Z,103050.08
2022-11-26T10:48:28.647Z,103045.17
2022-11-26T10:51:02.420Z,103040.20
2022-11-26T10:53:35.452Z,103039.78
2022-11-26T10:56:07.222Z,103035.23
2022-11-26T10:58:43.165Z,103029.12
2022-11-26T11:01:15.274Z,103037.72
2022-11-26T11:04:11.006Z,103034.09
2022-11-26T11:06:43.779Z,103026.34
2022-11-26T11:09:38.180Z,103026.80
2022-11-26T11:12:11.986Z,103028.04
2022-11-26T11:14:43.526Z,103028.01
2022-11-26T11:17:36.773Z,103024.31
2022-11-26T11:20:27.243Z,103017.34
2022-11-26T11:23:04.839Z,103013.59
2022-11-26T11:25:35.744Z,103013.45
2022-11-26T11:28:22.847Z,103015.41
2022-11-26T11:31:24.221Z,103016.56
2022-11-26T11:33:53.347Z,103005.87
2022-11-26T11:36:29.920Z,103008.29
2022-11-26T11:39:02.446Z,103008.32
2022-11-26T11:41:49.979Z,103002.99
2022-11-26T11:44:37.161Z,102998.05
2022-11-26T11:47:35.965Z,103000.44
2022-11-26T11:50:45.117Z,102989.81
2022-11-26T11:53:40.411Z,102993.08
2022-11-26T11:56:13.916Z,102989.78
2022-11-26T11:59:06.056Z,102987.39
2022-11-26T12:02:03.563Z,102984.45
2022-11-26T12:04:37.414Z,102985.70
2022-11-26T12:07:38.597Z,102978.73
2022-11-26T12:10:10.476Z,102980.76
2022-11-26T12:12:53.562Z,102976.99
2022-11-26T12:15:31.748Z,102976.14
2022-11-26T12:18:14.116Z,102972.41
2022-11-26T12:20:47.271Z,102965.87
2022-11-26T12:23:36.318Z,102966.23
2022-11-26T12:26:22.231Z,102967.05
2022-11-26T12:28:58.867Z,102963.39
2022-11-26T12:31:32.691Z,102956.06
2022-11-26T12:34:04.186Z,102966.66
2022-11-26T12:36:45.498Z,102960.16
2022-11-26T12:39:20.342Z,102957.34
2022-11-26T12:41:57.476Z,102965.45
2022-11-26T12:44:32.625Z,102962.18
2022-11-26T12:47:10.672Z,102958.52
2022-11-26T12:49:48.602Z,102953.65
2022-11-26T12:52:53.677Z,102950.80
2022-11-26T12:55:27.926Z,102958.19
2022-11-26T12:58:01.894Z,102956.52
2022-11-26T13:00:36.575Z,102963.42
2022-11-26T13:03:07.287Z,102963.03
2022-11-26T13:06:09.249Z,102977.29
2022-11-26T13:08:49.651Z,102983.44
2022-11-26T13:11:26.152Z,102973.30
2022-11-26T13:14:15.499Z,102969.21
2022-11-26T13:16:52.359Z,102965.16
2022-11-26T13:19:45.994Z,102968.46
2022-11-26T13:22:44.589Z,102967.67
2022-11-26T13:25:36.150Z,102957.14
2022-11-26T13:28:13.288Z,102951.91
2022-11-26T13:31:18.084Z,102957.66
2022-11-26T13:34:26.228Z,102951.20
2022-11-26T13:37:48.039Z,102949.55
2022-11-26T13:40:45.658Z,102946.74
2022-11-26T13:43:28.493Z,102944.33
2022-11-26T13:46:08.234Z,102947.56
2022-11-26T13:48:52.400Z,102942.23
2022-11-26T13:51:29.362Z,102945.93
2022-11-26T13:54:09.917Z,102939.42
2022-11-26T13:56:39.397Z,102943.90
2022-11-26T13:59:19.451Z,102934.52
2022-11-26T14:01:50.181Z,102938.99
2022-11-26T14:04:23.587Z,102936.97
2022-11-26T14:07:06.593Z,102933.73
2022-11-26T14:09:55.689Z,102940.63
2022-11-26T14:13:01.503Z,102932.95
2022-11-26T14:15:56.893Z,102932.95
2022-11-26T14:18:51.562Z,102935.04
2022-11-26T14:21:20.770Z,102935.86
2022-11-26T14:23:54.445Z,102936.31
2022-11-26T14:26:40.191Z,102926.18
2022-11-26T14:29:14.169Z,102941.28
2022-11-26T14:31:55.639Z,102939.65
2022-11-26T14:34:32.221Z,102937.27
2022-11-26T14:37:02.280Z,102944.59
2022-11-26T14:39:30.857Z,102948.31
2022-11-26T14:42:05.644Z,102939.75
2022-11-26T14:44:34.401Z,102939.75
2022-11-26T14:47:20.964Z,102938.11
2022-11-26T14:49:55.371Z,102936.91
2022-11-26T14:52:27.669Z,102938.93
2022-11-26T14:54:59.999Z,102940.60
2022-11-26T14:57:43.308Z,102944.30
2022-11-26T15:00:17.056Z,102928.44
2022-11-26T15:02:49.402Z,102924.41
2022-11-26T15:05:25.144Z,102924.45
2022-11-26T15:08:08.172Z,102922.81
2022-11-26T15:10:53.520Z,102910.58
2022-11-26T15:13:32.396Z,102909.37
2022-11-26T15:16:03.411Z,102909.86
2022-11-26T15:18:34.147Z,102915.59
2022-11-26T15:21:04.905Z,102920.45
2022-11-26T15:23:37.171Z,102914.83
2022-11-26T15:26:05.622Z,102905.84
2022-11-26T15:28:39.722Z,102906.33
2022-11-26T15:31:11.811Z,102912.45
2022-11-26T15:33:40.816Z,102903.52
2022-11-26T15:36:14.247Z,102914.54
2022-11-26T15:39:09.933Z,102907.60
2022-11-26T15:41:44.594Z,102910.94
2022-11-26T15:44:22.485Z,102913.36
2022-11-26T15:46:54.072Z,102913.00
2022-11-26T15:49:30.309Z,102906.88
2022-11-26T15:52:11.260Z,102910.97
2022-11-26T15:55:10.678Z,102903.65
2022-11-26T15:57:37.369Z,102891.45
2022-11-26T16:00:09.453Z,102898.38
2022-11-26T16:02:39.951Z,102895.60
2022-11-26T16:05:25.000Z,102897.23
2022-11-26T16:08:01.568Z,102890.37
2022-11-26T16:10:37.995Z,102889.59
2022-11-26T16:13:17.352Z,102892.04
2022-11-26T16:16:17.865Z,102891.25
2022-11-26T16:19:01.346Z,102888.48
2022-11-26T16:21:32.789Z,102889.72
2022-11-26T16:24:07.056Z,102895.05
2022-11-26T16:26:53.988Z,102900.77
2022-11-26T16:29:21.744Z,102893.48
2022-11-26T16:31:49.367Z,102902.86
2022-11-26T16:34:16.979Z,102895.99
2022-11-26T16:36:45.077Z,102899.27
2022-11-26T16:39:18.175Z,102900.90
2022-11-26T16:41:45.885Z,102902.96
2022-11-26T16:44:13.571Z,102903.78
2022-11-26T16:46:42.115Z,102903.38
2022-11-26T16:49:11.898Z,102901.78
2022-11-26T16:51:39.547Z,102905.48
2022-11-26T16:54:07.234Z,102915.68
2022-11-26T16:56:39.228Z,102919.73
2022-11-26T16:59:15.039Z,102914.90
2022-11-26T17:01:42.759Z,102913.30
2022-11-26T17:04:13.295Z,102908.42
2022-11-26T17:06:42.349Z,102914.57
2022-11-26T17:09:20.187Z,102917.41
2022-11-26T17:11:47.928Z,102914.11
2022-11-26T17:14:15.752Z,102917.41
2022-11-26T17:16:43.715Z,102903.98
2022-11-26T17:19:14.354Z,102906.00
2022-11-26T17:21:42.176Z,102899.52
2022-11-26T17:24:09.961Z,102906.43
2022-11-26T17:26:37.650Z,102908.06
2022-11-26T17:29:05.501Z,102912.12
2022-11-26T17:31:33.257Z,102909.70
2022-11-26T17:34:01.038Z,102909.30
2022-11-26T17:36:32.623Z,102909.30
2022-11-26T17:39:03.015Z,102904.43
2022-11-26T17:41:30.684Z,102906.85
2022-11-26T17:43:58.361Z,102897.53
2022-11-26T17:46:26.062Z,102903.22
2022-11-26T17:48:59.366Z,102900.38
2022-11-26T17:51:27.697Z,102908.09
2022-11-26T17:53:55.535Z,102905.64
2022-11-26T17:56:25.174Z,102906.88
2022-11-26T17:58:52.890Z,102913.39
2022-11-26T18:01:21.255Z,102912.15
2022-11-26T18:03:49.134Z,102907.70
2022-11-26T18:06:19.250Z,102910.94
2022-11-26T18:08:47.576Z,102910.94
2022-11-26T18:11:16.792Z,102911.33
2022-11-26T18:13:44.797Z,102909.30
2022-11-26T18:16:12.510Z,102901.23
2022-11-26T18:18:40.167Z,102912.15
2022-11-26T18:21:07.962Z,102911.76
2022-11-26T18:23:35.747Z,102914.21
2022-11-26T18:26:04.357Z,102915.84
2022-11-26T18:28:32.141Z,102914.60
2022-11-26T18:31:00.725Z,102916.63
2022-11-26T18:33:28.539Z,102910.12
2022-11-26T18:35:56.332Z,102916.63
2022-11-26T18:38:26.110Z,102920.26
2022-11-26T18:41:04.741Z,102921.47
2022-11-26T18:43:36.904Z,102913.36
2022-11-26T18:46:06.343Z,102920.23
2022-11-26T18:48:38.101Z,102922.65
2022-11-26T18:51:06.865Z,102925.46
2022-11-26T18:53:35.291Z,102918.95
2022-11-26T18:56:03.211Z,102918.13
2022-11-26T18:58:31.214Z,102912.45
2022-11-26T19:00:59.758Z,102915.71
2022-11-26T19:03:28.555Z,102914.08
2022-11-26T19:05:56.981Z,102916.50
2022-11-26T19:08:24.939Z,102912.02
2022-11-26T19:10:52.761Z,102902.73
2022-11-26T19:13:20.616Z,102911.23
2022-11-26T19:15:49.016Z,102910.84
2022-11-26T19:18:17.382Z,102912.84
2022-11-26T19:20:54.017Z,102909.17
2022-11-26T19:23:25.526Z,102907.57
2022-11-26T19:25:53.365Z,102909.17
2022-11-26T19:28:21.045Z,102916.50
2022-11-26T19:31:06.266Z,102915.65
2022-11-26T19:33:34.588Z,102920.98
2022-11-26T19:36:11.949Z,102908.39
2022-11-26T19:38:40.254Z,102907.15
2022-11-26T19:41:08.315Z,102905.51
2022-11-26T19:43:38.956Z,102907.18
2022-11-26T19:46:12.761Z,102904.34
2022-11-26T19:48:43.429Z,102904.37
2022-11-26T19:51:12.849Z,102898.28
2022-11-26T19:53:40.993Z,102893.77
2022-11-26T19:56:41.314Z,102896.65
2022-11-26T19:59:08.915Z,102892.56
2022-11-26T20:01:36.715Z,102886.48
2022-11-26T20:04:08.329Z,102884.06
2022-11-26T20:06:37.344Z,102880.82
2022-11-26T20:09:07.249Z,102886.94
2022-11-26T20:11:38.611Z,102876.77
2022-11-26T20:14:07.015Z,102878.41
2022-11-26T20:16:34.779Z,102871.93
2022-11-26T20:19:03.504Z,102865.03
2022-11-26T20:21:33.467Z,102860.98
2022-11-26T20:24:03.700Z,102869.87
2022-11-26T20:26:39.364Z,102860.16
2022-11-26T20:29:09.756Z,102874.35
2022-11-26T20:31:41.420Z,102869.84
2022-11-26T20:34:09.136Z,102876.73
2022-11-26T20:36:36.804Z,102873.89
2022-11-26T20:39:04.973Z,102875.88
2022-11-26T20:41:32.739Z,102884.78
2022-11-26T20:44:00.557Z,102880.70
2022-11-26T20:46:29.407Z,102881.02
2022-11-26T20:48:58.032Z,102882.62
2022-11-26T20:51:29.093Z,102880.98
2022-11-26T20:54:00.054Z,102876.90
2022-11-26T20:56:28.845Z,102875.62
2022-11-26T20:58:56.971Z,102887.79
2022-11-26T21:01:26.996Z,102882.91
2022-11-26T21:03:55.699Z,102881.21
2022-11-26T21:06:29.650Z,102877.95
2022-11-26T21:09:01.267Z,102875.10
2022-11-26T21:11:29.712Z,102873.10
2022-11-26T21:14:00.081Z,102869.05
2022-11-26T21:16:29.099Z,102864.24
2022-11-26T21:18:57.932Z,102863.85
2022-11-26T21:21:27.680Z,102854.56
2022-11-26T21:23:56.122Z,102852.14
2022-11-26T21:26:26.319Z,102839.62
2022-11-26T21:28:55.833Z,102827.09
2022-11-26T21:31:24.882Z,102822.65
2022-11-26T21:33:58.413Z,102827.55
2022-11-26T21:36:26.694Z,102821.51
2022-11-26T21:38:54.544Z,102828.41
2022-11-26T21:41:22.960Z,102822.35
2022-11-26T21:43:51.419Z,102823.17
2022-11-26T21:46:20.281Z,102824.38
2022-11-26T21:48:48.277Z,102816.70
2022-11-26T21:51:20.226Z,102816.66
2022-11-26T21:53:49.746Z,102809.41
2022-11-26T21:56:29.186Z,102821.57
2022-11-26T21:58:59.557Z,102827.62
2022-11-26T22:01:35.811Z,102826.41
2022-11-26T22:04:08.225Z,102826.02
2022-11-26T22:06:36.504Z,102819.94
2022-11-26T22:09:05.304Z,102833.70
2022-11-26T22:11:37.033Z,102831.70
2022-11-26T22:14:06.381Z,102830.07
2022-11-26T22:16:35.082Z,102838.97
2022-11-26T22:19:03.193Z,102838.51
2022-11-26T22:21:34.047Z,102844.10
2022-11-26T22:24:03.543Z,102847.27
2022-11-26T22:26:32.416Z,102848.48
2022-11-26T22:29:00.913Z,102850.09
2022-11-26T22:31:31.631Z,102855.31
2022-11-26T22:34:11.681Z,102851.30
2022-11-26T22:36:39.901Z,102861.37
2022-11-26T22:39:12.032Z,102864.99
2022-11-26T22:41:41.794Z,102868.23
2022-11-26T22:44:10.205Z,102862.15
2022-11-26T22:46:39.537Z,102872.26
2022-11-26T22:49:08.139Z,102872.65
2022-11-26T22:51:36.424Z,102871.05
2022-11-26T22:54:08.166Z,102871.44
2022-11-26T22:56:38.872Z,102871.80
2022-11-26T22:59:08.169Z,102864.90
2022-11-26T23:01:38.040Z,102865.68
2022-11-26T23:04:08.823Z,102862.41
2022-11-26T23:06:37.217Z,102857.51
2022-11-26T23:09:07.000Z,102862.28
2022-11-26T23:11:39.211Z,102862.18
2022-11-26T23:14:08.444Z,102864.57
2022-11-26T23:16:38.027Z,102862.02
2022-11-26T23:19:06.764Z,102870.91
2022-11-26T23:21:40.787Z,102865.26
2022-11-26T23:24:09.330Z,102865.26
2022-11-26T23:26:38.720Z,102872.52
2022-11-26T23:29:07.676Z,102872.06
2022-11-26T23:31:41.502Z,102874.48
2022-11-26T23:34:10.611Z,102866.04
2022-11-26T23:36:39.492Z,102866.96
2022-11-26T23:39:09.340Z,102862.91
2022-11-26T23:41:37.723Z,102858.85
2022-11-26T23:44:05.610Z,102856.88
2022-11-26T23:46:36.391Z,102862.58
2022-11-26T23:49:05.198Z,102850.87
2022-11-26T23:51:33.788Z,102847.63
2022-11-26T23:54:01.903Z,102843.19
2022-11-26T23:56:32.301Z,102838.41
2022-11-26T23:59:02.949Z,102839.72
